sensor_id;sensor_type;location;lat;lon;timestamp;P1;durP1;ratioP1;P2;durP2;ratioP2
71558;SDS011;59382;43.852;25.952;2023-02-12T00:00:01;21.77;;;10.30;;
71558;SDS011;59382;43.852;25.952;2023-02-12T00:02:30;19.10;;;8.75;;
71558;SDS011;59382;43.852;25.952;2023-02-12T00:04:56;20.35;;;10.10;;
71558;SDS011;59382;43.852;25.952;2023-02-12T00:07:21;19.15;;;10.40;;
71558;SDS011;59382;43.852;25.952;2023-02-12T00:09:47;16.77;;;9.18;;
71558;SDS011;59382;43.852;25.952;2023-02-12T00:12:12;17.73;;;9.90;;
71558;SDS011;59382;43.852;25.952;2023-02-12T00:14:38;15.98;;;9.10;;
71558;SDS011;59382;43.852;25.952;2023-02-12T00:17:03;21.73;;;8.98;;
71558;SDS011;59382;43.852;25.952;2023-02-12T00:19:29;18.45;;;10.10;;
71558;SDS011;59382;43.852;25.952;2023-02-12T00:21:55;23.08;;;10.93;;
71558;SDS011;59382;43.852;25.952;2023-02-12T00:24:20;18.13;;;9.52;;
71558;SDS011;59382;43.852;25.952;2023-02-12T00:26:46;21.02;;;11.80;;
71558;SDS011;59382;43.852;25.952;2023-02-12T00:29:12;22.48;;;9.30;;
71558;SDS011;59382;43.852;25.952;2023-02-12T00:31:39;22.85;;;10.25;;
71558;SDS011;59382;43.852;25.952;2023-02-12T00:34:04;12.35;;;6.50;;
71558;SDS011;59382;43.852;25.952;2023-02-12T00:36:30;17.08;;;9.68;;
71558;SDS011;59382;43.852;25.952;2023-02-12T00:38:56;20.08;;;11.35;;
71558;SDS011;59382;43.852;25.952;2023-02-12T00:41:22;22.90;;;10.88;;
71558;SDS011;59382;43.852;25.952;2023-02-12T00:43:48;22.73;;;10.85;;
71558;SDS011;59382;43.852;25.952;2023-02-12T00:46:14;23.38;;;10.65;;
71558;SDS011;59382;43.852;25.952;2023-02-12T00:48:40;21.25;;;11.25;;
71558;SDS011;59382;43.852;25.952;2023-02-12T00:51:05;21.23;;;9.85;;
71558;SDS011;59382;43.852;25.952;2023-02-12T00:53:32;16.70;;;8.10;;
71558;SDS011;59382;43.852;25.952;2023-02-12T00:55:58;16.98;;;10.68;;
71558;SDS011;59382;43.852;25.952;2023-02-12T00:58:23;19.25;;;10.13;;
71558;SDS011;59382;43.852;25.952;2023-02-12T01:00:49;25.02;;;10.52;;
71558;SDS011;59382;43.852;25.952;2023-02-12T01:03:15;23.40;;;10.60;;
71558;SDS011;59382;43.852;25.952;2023-02-12T01:05:41;17.52;;;9.38;;
71558;SDS011;59382;43.852;25.952;2023-02-12T01:08:06;22.13;;;11.32;;
71558;SDS011;59382;43.852;25.952;2023-02-12T01:10:32;13.32;;;8.60;;
71558;SDS011;59382;43.852;25.952;2023-02-12T01:12:57;18.27;;;10.90;;
71558;SDS011;59382;43.852;25.952;2023-02-12T01:15:23;18.42;;;9.98;;
71558;SDS011;59382;43.852;25.952;2023-02-12T01:17:52;21.17;;;11.07;;
71558;SDS011;59382;43.852;25.952;2023-02-12T01:20:18;23.30;;;11.43;;
71558;SDS011;59382;43.852;25.952;2023-02-12T01:22:45;19.95;;;10.73;;
71558;SDS011;59382;43.852;25.952;2023-02-12T01:25:11;16.52;;;8.35;;
71558;SDS011;59382;43.852;25.952;2023-02-12T01:27:37;23.20;;;11.10;;
71558;SDS011;59382;43.852;25.952;2023-02-12T01:30:03;26.77;;;12.30;;
71558;SDS011;59382;43.852;25.952;2023-02-12T01:32:31;15.68;;;9.52;;
71558;SDS011;59382;43.852;25.952;2023-02-12T01:34:58;20.65;;;10.50;;
71558;SDS011;59382;43.852;25.952;2023-02-12T01:37:23;28.35;;;12.50;;
71558;SDS011;59382;43.852;25.952;2023-02-12T01:39:48;27.52;;;12.10;;
71558;SDS011;59382;43.852;25.952;2023-02-12T01:42:14;23.50;;;10.85;;
71558;SDS011;59382;43.852;25.952;2023-02-12T01:44:43;19.23;;;9.90;;
71558;SDS011;59382;43.852;25.952;2023-02-12T01:47:29;23.42;;;12.63;;
71558;SDS011;59382;43.852;25.952;2023-02-12T01:49:55;22.55;;;11.25;;
71558;SDS011;59382;43.852;25.952;2023-02-12T01:52:25;27.60;;;12.18;;
71558;SDS011;59382;43.852;25.952;2023-02-12T01:54:53;24.20;;;12.57;;
71558;SDS011;59382;43.852;25.952;2023-02-12T01:57:22;28.83;;;13.70;;
71558;SDS011;59382;43.852;25.952;2023-02-12T01:59:49;22.50;;;12.60;;
71558;SDS011;59382;43.852;25.952;2023-02-12T02:02:19;24.58;;;12.20;;
71558;SDS011;59382;43.852;25.952;2023-02-12T02:04:49;24.10;;;11.65;;
71558;SDS011;59382;43.852;25.952;2023-02-12T02:07:21;21.90;;;12.50;;
71558;SDS011;59382;43.852;25.952;2023-02-12T02:09:47;27.27;;;11.27;;
71558;SDS011;59382;43.852;25.952;2023-02-12T02:12:14;20.63;;;10.05;;
71558;SDS011;59382;43.852;25.952;2023-02-12T02:14:59;17.92;;;10.55;;
71558;SDS011;59382;43.852;25.952;2023-02-12T02:17:30;18.33;;;8.85;;
71558;SDS011;59382;43.852;25.952;2023-02-12T02:20:20;21.17;;;9.70;;
71558;SDS011;59382;43.852;25.952;2023-02-12T02:41:23;28.38;;;12.98;;
71558;SDS011;59382;43.852;25.952;2023-02-12T02:43:55;16.75;;;9.10;;
71558;SDS011;59382;43.852;25.952;2023-02-12T02:46:30;20.95;;;11.52;;
71558;SDS011;59382;43.852;25.952;2023-02-12T02:49:00;21.80;;;12.15;;
71558;SDS011;59382;43.852;25.952;2023-02-12T02:51:32;21.83;;;11.75;;
71558;SDS011;59382;43.852;25.952;2023-02-12T02:54:06;27.27;;;13.45;;
71558;SDS011;59382;43.852;25.952;2023-02-12T02:56:37;26.25;;;13.23;;
71558;SDS011;59382;43.852;25.952;2023-02-12T02:59:07;32.10;;;14.20;;
71558;SDS011;59382;43.852;25.952;2023-02-12T03:02:04;21.48;;;11.48;;
71558;SDS011;59382;43.852;25.952;2023-02-12T03:04:40;21.75;;;11.90;;
71558;SDS011;59382;43.852;25.952;2023-02-12T03:07:11;24.60;;;12.48;;
71558;SDS011;59382;43.852;25.952;2023-02-12T03:09:42;13.85;;;8.20;;
71558;SDS011;59382;43.852;25.952;2023-02-12T03:12:16;24.30;;;12.52;;
71558;SDS011;59382;43.852;25.952;2023-02-12T03:14:49;25.27;;;12.02;;
71558;SDS011;59382;43.852;25.952;2023-02-12T03:17:23;24.50;;;12.73;;
71558;SDS011;59382;43.852;25.952;2023-02-12T03:19:59;26.45;;;13.05;;
71558;SDS011;59382;43.852;25.952;2023-02-12T03:25:00;21.10;;;11.02;;
71558;SDS011;59382;43.852;25.952;2023-02-12T03:27:35;21.98;;;11.90;;
71558;SDS011;59382;43.852;25.952;2023-02-12T03:30:03;20.52;;;11.20;;
71558;SDS011;59382;43.852;25.952;2023-02-12T03:32:32;29.80;;;14.05;;
71558;SDS011;59382;43.852;25.952;2023-02-12T03:35:08;21.55;;;11.48;;
71558;SDS011;59382;43.852;25.952;2023-02-12T03:40:36;31.23;;;13.80;;
71558;SDS011;59382;43.852;25.952;2023-02-12T03:43:07;26.58;;;13.38;;
71558;SDS011;59382;43.852;25.952;2023-02-12T03:45:44;28.52;;;14.25;;
71558;SDS011;59382;43.852;25.952;2023-02-12T03:51:03;24.60;;;13.30;;
71558;SDS011;59382;43.852;25.952;2023-02-12T03:53:37;22.80;;;11.77;;
71558;SDS011;59382;43.852;25.952;2023-02-12T03:56:04;31.00;;;14.20;;
71558;SDS011;59382;43.852;25.952;2023-02-12T03:58:36;25.85;;;12.05;;
71558;SDS011;59382;43.852;25.952;2023-02-12T04:01:05;21.90;;;12.07;;
71558;SDS011;59382;43.852;25.952;2023-02-12T04:03:31;28.83;;;14.00;;
71558;SDS011;59382;43.852;25.952;2023-02-12T04:05:57;28.30;;;14.25;;
71558;SDS011;59382;43.852;25.952;2023-02-12T04:08:22;30.02;;;13.85;;
71558;SDS011;59382;43.852;25.952;2023-02-12T04:13:31;23.30;;;11.45;;
71558;SDS011;59382;43.852;25.952;2023-02-12T04:16:12;30.02;;;14.73;;
71558;SDS011;59382;43.852;25.952;2023-02-12T04:18:47;26.63;;;13.35;;
71558;SDS011;59382;43.852;25.952;2023-02-12T04:26:35;29.63;;;14.18;;
71558;SDS011;59382;43.852;25.952;2023-02-12T04:36:48;36.60;;;14.52;;
71558;SDS011;59382;43.852;25.952;2023-02-12T04:39:22;28.55;;;14.93;;
71558;SDS011;59382;43.852;25.952;2023-02-12T04:41:51;23.60;;;14.73;;
71558;SDS011;59382;43.852;25.952;2023-02-12T04:44:24;29.98;;;14.80;;
71558;SDS011;59382;43.852;25.952;2023-02-12T04:46:51;26.17;;;14.18;;
71558;SDS011;59382;43.852;25.952;2023-02-12T04:49:17;27.17;;;14.23;;
71558;SDS011;59382;43.852;25.952;2023-02-12T04:51:45;29.88;;;14.50;;
71558;SDS011;59382;43.852;25.952;2023-02-12T04:54:11;27.08;;;13.85;;
71558;SDS011;59382;43.852;25.952;2023-02-12T04:56:38;31.80;;;14.98;;
71558;SDS011;59382;43.852;25.952;2023-02-12T04:59:03;27.95;;;14.40;;
71558;SDS011;59382;43.852;25.952;2023-02-12T05:01:30;28.92;;;14.77;;
71558;SDS011;59382;43.852;25.952;2023-02-12T05:03:58;24.23;;;13.50;;
71558;SDS011;59382;43.852;25.952;2023-02-12T05:06:23;28.50;;;14.73;;
71558;SDS011;59382;43.852;25.952;2023-02-12T05:08:51;26.08;;;13.35;;
71558;SDS011;59382;43.852;25.952;2023-02-12T05:11:17;31.52;;;14.52;;
71558;SDS011;59382;43.852;25.952;2023-02-12T05:13:42;28.05;;;14.48;;
71558;SDS011;59382;43.852;25.952;2023-02-12T05:16:08;33.97;;;15.25;;
71558;SDS011;59382;43.852;25.952;2023-02-12T05:18:34;28.45;;;14.00;;
71558;SDS011;59382;43.852;25.952;2023-02-12T05:21:00;33.03;;;16.80;;
71558;SDS011;59382;43.852;25.952;2023-02-12T05:23:28;25.70;;;13.55;;
71558;SDS011;59382;43.852;25.952;2023-02-12T05:25:59;30.80;;;15.32;;
71558;SDS011;59382;43.852;25.952;2023-02-12T05:28:26;29.98;;;14.90;;
71558;SDS011;59382;43.852;25.952;2023-02-12T05:30:52;26.98;;;12.98;;
71558;SDS011;59382;43.852;25.952;2023-02-12T05:33:18;29.13;;;14.88;;
71558;SDS011;59382;43.852;25.952;2023-02-12T05:35:43;31.25;;;15.32;;
71558;SDS011;59382;43.852;25.952;2023-02-12T05:38:09;28.85;;;15.30;;
71558;SDS011;59382;43.852;25.952;2023-02-12T05:40:34;31.05;;;15.93;;
71558;SDS011;59382;43.852;25.952;2023-02-12T05:43:00;30.80;;;14.02;;
71558;SDS011;59382;43.852;25.952;2023-02-12T05:45:26;29.27;;;14.60;;
71558;SDS011;59382;43.852;25.952;2023-02-12T05:47:53;26.98;;;13.88;;
71558;SDS011;59382;43.852;25.952;2023-02-12T05:50:22;28.48;;;14.15;;
71558;SDS011;59382;43.852;25.952;2023-02-12T05:52:47;33.55;;;15.88;;
71558;SDS011;59382;43.852;25.952;2023-02-12T05:55:16;29.67;;;14.13;;
71558;SDS011;59382;43.852;25.952;2023-02-12T05:57:41;31.75;;;16.33;;
71558;SDS011;59382;43.852;25.952;2023-02-12T06:00:07;29.45;;;16.40;;
71558;SDS011;59382;43.852;25.952;2023-02-12T06:02:33;26.77;;;13.35;;
71558;SDS011;59382;43.852;25.952;2023-02-12T06:04:59;28.98;;;15.15;;
71558;SDS011;59382;43.852;25.952;2023-02-12T06:07:25;28.58;;;15.10;;
71558;SDS011;59382;43.852;25.952;2023-02-12T06:09:50;32.50;;;16.88;;
71558;SDS011;59382;43.852;25.952;2023-02-12T06:12:19;27.30;;;14.32;;
71558;SDS011;59382;43.852;25.952;2023-02-12T06:14:45;30.73;;;15.07;;
71558;SDS011;59382;43.852;25.952;2023-02-12T06:17:10;31.15;;;15.55;;
71558;SDS011;59382;43.852;25.952;2023-02-12T06:19:36;38.38;;;16.55;;
71558;SDS011;59382;43.852;25.952;2023-02-12T06:22:01;34.08;;;16.92;;
71558;SDS011;59382;43.852;25.952;2023-02-12T06:24:27;30.25;;;16.58;;
71558;SDS011;59382;43.852;25.952;2023-02-12T06:26:52;27.73;;;14.95;;
71558;SDS011;59382;43.852;25.952;2023-02-12T06:29:21;36.60;;;16.75;;
71558;SDS011;59382;43.852;25.952;2023-02-12T06:31:47;28.90;;;15.25;;
71558;SDS011;59382;43.852;25.952;2023-02-12T06:34:13;28.88;;;16.27;;
71558;SDS011;59382;43.852;25.952;2023-02-12T06:36:42;55.15;;;19.08;;
71558;SDS011;59382;43.852;25.952;2023-02-12T06:39:09;34.33;;;15.80;;
71558;SDS011;59382;43.852;25.952;2023-02-12T06:41:36;31.00;;;15.90;;
71558;SDS011;59382;43.852;25.952;2023-02-12T06:44:02;28.23;;;15.63;;
71558;SDS011;59382;43.852;25.952;2023-02-12T06:46:28;33.45;;;14.77;;
71558;SDS011;59382;43.852;25.952;2023-02-12T06:48:55;33.17;;;15.98;;
71558;SDS011;59382;43.852;25.952;2023-02-12T06:51:22;29.40;;;13.85;;
71558;SDS011;59382;43.852;25.952;2023-02-12T06:53:48;39.47;;;15.38;;
71558;SDS011;59382;43.852;25.952;2023-02-12T06:56:15;33.00;;;17.13;;
71558;SDS011;59382;43.852;25.952;2023-02-12T06:58:42;33.67;;;16.92;;
71558;SDS011;59382;43.852;25.952;2023-02-12T07:03:38;35.08;;;16.98;;
71558;SDS011;59382;43.852;25.952;2023-02-12T07:06:04;35.58;;;16.65;;
71558;SDS011;59382;43.852;25.952;2023-02-12T07:08:30;32.70;;;16.15;;
71558;SDS011;59382;43.852;25.952;2023-02-12T07:10:56;18.15;;;8.60;;
71558;SDS011;59382;43.852;25.952;2023-02-12T07:13:21;38.75;;;19.67;;
71558;SDS011;59382;43.852;25.952;2023-02-12T07:15:47;36.92;;;17.52;;
71558;SDS011;59382;43.852;25.952;2023-02-12T07:18:12;36.80;;;16.85;;
71558;SDS011;59382;43.852;25.952;2023-02-12T07:20:38;31.75;;;16.88;;
71558;SDS011;59382;43.852;25.952;2023-02-12T07:23:03;36.55;;;17.55;;
71558;SDS011;59382;43.852;25.952;2023-02-12T07:25:29;44.22;;;19.30;;
71558;SDS011;59382;43.852;25.952;2023-02-12T07:27:54;38.40;;;18.77;;
71558;SDS011;59382;43.852;25.952;2023-02-12T07:30:20;36.50;;;17.30;;
71558;SDS011;59382;43.852;25.952;2023-02-12T07:32:45;31.98;;;17.92;;
71558;SDS011;59382;43.852;25.952;2023-02-12T07:35:11;34.25;;;17.20;;
71558;SDS011;59382;43.852;25.952;2023-02-12T07:37:37;34.35;;;16.90;;
71558;SDS011;59382;43.852;25.952;2023-02-12T07:40:02;31.85;;;15.93;;
71558;SDS011;59382;43.852;25.952;2023-02-12T07:42:28;50.20;;;19.65;;
71558;SDS011;59382;43.852;25.952;2023-02-12T07:44:54;29.02;;;14.93;;
71558;SDS011;59382;43.852;25.952;2023-02-12T07:47:19;37.20;;;16.95;;
71558;SDS011;59382;43.852;25.952;2023-02-12T07:49:45;39.38;;;19.42;;
71558;SDS011;59382;43.852;25.952;2023-02-12T07:52:10;35.45;;;17.15;;
71558;SDS011;59382;43.852;25.952;2023-02-12T07:54:36;36.22;;;16.25;;
71558;SDS011;59382;43.852;25.952;2023-02-12T07:57:02;34.65;;;17.00;;
71558;SDS011;59382;43.852;25.952;2023-02-12T07:59:27;34.75;;;16.88;;
71558;SDS011;59382;43.852;25.952;2023-02-12T08:01:53;58.28;;;28.58;;
71558;SDS011;59382;43.852;25.952;2023-02-12T08:04:19;34.00;;;17.95;;
71558;SDS011;59382;43.852;25.952;2023-02-12T08:06:48;30.15;;;17.30;;
71558;SDS011;59382;43.852;25.952;2023-02-12T08:09:16;37.03;;;17.38;;
71558;SDS011;59382;43.852;25.952;2023-02-12T08:11:44;30.05;;;16.80;;
71558;SDS011;59382;43.852;25.952;2023-02-12T08:14:11;42.15;;;18.52;;
71558;SDS011;59382;43.852;25.952;2023-02-12T08:16:38;41.40;;;19.67;;
71558;SDS011;59382;43.852;25.952;2023-02-12T08:19:05;49.13;;;22.33;;
71558;SDS011;59382;43.852;25.952;2023-02-12T08:21:31;39.92;;;18.92;;
71558;SDS011;59382;43.852;25.952;2023-02-12T08:23:57;40.13;;;18.98;;
71558;SDS011;59382;43.852;25.952;2023-02-12T08:26:30;39.60;;;19.33;;
71558;SDS011;59382;43.852;25.952;2023-02-12T08:28:59;34.15;;;18.35;;
71558;SDS011;59382;43.852;25.952;2023-02-12T08:31:33;32.42;;;17.30;;
71558;SDS011;59382;43.852;25.952;2023-02-12T08:34:00;28.35;;;15.02;;
71558;SDS011;59382;43.852;25.952;2023-02-12T08:36:28;32.05;;;17.05;;
71558;SDS011;59382;43.852;25.952;2023-02-12T08:38:56;46.67;;;17.02;;
71558;SDS011;59382;43.852;25.952;2023-02-12T08:41:23;32.70;;;15.18;;
71558;SDS011;59382;43.852;25.952;2023-02-12T08:43:51;33.33;;;16.20;;
71558;SDS011;59382;43.852;25.952;2023-02-12T08:46:19;33.70;;;16.75;;
71558;SDS011;59382;43.852;25.952;2023-02-12T08:48:46;30.08;;;15.20;;
71558;SDS011;59382;43.852;25.952;2023-02-12T08:53:39;33.83;;;15.90;;
71558;SDS011;59382;43.852;25.952;2023-02-12T08:56:07;29.25;;;15.50;;
71558;SDS011;59382;43.852;25.952;2023-02-12T08:58:34;31.13;;;16.55;;
71558;SDS011;59382;43.852;25.952;2023-02-12T09:01:00;44.85;;;17.55;;
71558;SDS011;59382;43.852;25.952;2023-02-12T09:03:26;37.92;;;16.73;;
71558;SDS011;59382;43.852;25.952;2023-02-12T09:05:52;35.47;;;16.35;;
71558;SDS011;59382;43.852;25.952;2023-02-12T09:08:18;31.77;;;15.75;;
71558;SDS011;59382;43.852;25.952;2023-02-12T09:10:43;39.15;;;16.67;;
71558;SDS011;59382;43.852;25.952;2023-02-12T09:13:10;32.72;;;15.18;;
71558;SDS011;59382;43.852;25.952;2023-02-12T09:15:37;31.05;;;15.40;;
71558;SDS011;59382;43.852;25.952;2023-02-12T09:18:04;48.17;;;16.20;;
71558;SDS011;59382;43.852;25.952;2023-02-12T09:20:30;34.60;;;16.65;;
71558;SDS011;59382;43.852;25.952;2023-02-12T09:22:59;34.63;;;17.52;;
71558;SDS011;59382;43.852;25.952;2023-02-12T09:25:25;34.10;;;16.33;;
71558;SDS011;59382;43.852;25.952;2023-02-12T09:27:50;37.10;;;16.60;;
71558;SDS011;59382;43.852;25.952;2023-02-12T09:30:16;30.45;;;16.67;;
71558;SDS011;59382;43.852;25.952;2023-02-12T09:32:42;30.35;;;16.65;;
71558;SDS011;59382;43.852;25.952;2023-02-12T09:35:08;43.53;;;16.58;;
71558;SDS011;59382;43.852;25.952;2023-02-12T09:37:36;30.25;;;16.27;;
71558;SDS011;59382;43.852;25.952;2023-02-12T09:40:04;32.20;;;15.68;;
71558;SDS011;59382;43.852;25.952;2023-02-12T09:45:25;32.95;;;16.52;;
71558;SDS011;59382;43.852;25.952;2023-02-12T09:53:13;29.63;;;14.88;;
71558;SDS011;59382;43.852;25.952;2023-02-12T09:55:41;31.00;;;15.30;;
71558;SDS011;59382;43.852;25.952;2023-02-12T09:58:14;40.30;;;16.40;;
71558;SDS011;59382;43.852;25.952;2023-02-12T10:01:05;28.65;;;15.48;;
71558;SDS011;59382;43.852;25.952;2023-02-12T10:03:36;35.83;;;16.63;;
71558;SDS011;59382;43.852;25.952;2023-02-12T10:06:03;41.53;;;16.45;;
71558;SDS011;59382;43.852;25.952;2023-02-12T10:11:21;37.78;;;16.10;;
71558;SDS011;59382;43.852;25.952;2023-02-12T10:14:20;33.63;;;15.88;;
71558;SDS011;59382;43.852;25.952;2023-02-12T10:22:49;30.65;;;15.57;;
71558;SDS011;59382;43.852;25.952;2023-02-12T10:25:29;32.97;;;17.70;;
71558;SDS011;59382;43.852;25.952;2023-02-12T10:28:13;32.63;;;16.73;;
71558;SDS011;59382;43.852;25.952;2023-02-12T10:30:53;30.92;;;14.88;;
71558;SDS011;59382;43.852;25.952;2023-02-12T10:36:05;35.75;;;15.85;;
71558;SDS011;59382;43.852;25.952;2023-02-12T10:38:34;37.60;;;16.60;;
71558;SDS011;59382;43.852;25.952;2023-02-12T10:41:03;35.85;;;16.73;;
71558;SDS011;59382;43.852;25.952;2023-02-12T10:43:29;39.53;;;16.77;;
71558;SDS011;59382;43.852;25.952;2023-02-12T10:45:55;31.58;;;15.75;;
71558;SDS011;59382;43.852;25.952;2023-02-12T10:48:23;37.10;;;16.63;;
71558;SDS011;59382;43.852;25.952;2023-02-12T10:53:23;35.88;;;17.08;;
71558;SDS011;59382;43.852;25.952;2023-02-12T10:58:56;35.15;;;16.40;;
71558;SDS011;59382;43.852;25.952;2023-02-12T11:01:28;31.13;;;14.35;;
71558;SDS011;59382;43.852;25.952;2023-02-12T11:03:57;36.55;;;17.63;;
71558;SDS011;59382;43.852;25.952;2023-02-12T11:06:28;35.22;;;17.23;;
71558;SDS011;59382;43.852;25.952;2023-02-12T11:08:56;32.42;;;17.02;;
71558;SDS011;59382;43.852;25.952;2023-02-12T11:11:24;43.03;;;18.35;;
71558;SDS011;59382;43.852;25.952;2023-02-12T11:13:53;40.47;;;18.90;;
71558;SDS011;59382;43.852;25.952;2023-02-12T11:16:32;33.05;;;17.23;;
71558;SDS011;59382;43.852;25.952;2023-02-12T11:19:05;34.45;;;17.67;;
71558;SDS011;59382;43.852;25.952;2023-02-12T11:21:33;40.97;;;19.02;;
71558;SDS011;59382;43.852;25.952;2023-02-12T11:27:10;35.15;;;17.85;;
71558;SDS011;59382;43.852;25.952;2023-02-12T11:29:36;34.20;;;17.17;;
71558;SDS011;59382;43.852;25.952;2023-02-12T11:32:05;42.63;;;19.45;;
71558;SDS011;59382;43.852;25.952;2023-02-12T11:34:33;37.05;;;18.42;;
71558;SDS011;59382;43.852;25.952;2023-02-12T11:36:59;36.47;;;16.27;;
71558;SDS011;59382;43.852;25.952;2023-02-12T11:39:30;49.75;;;17.48;;
71558;SDS011;59382;43.852;25.952;2023-02-12T11:41:59;41.33;;;18.17;;
71558;SDS011;59382;43.852;25.952;2023-02-12T11:44:29;38.20;;;17.23;;
71558;SDS011;59382;43.852;25.952;2023-02-12T11:47:09;36.78;;;17.15;;
71558;SDS011;59382;43.852;25.952;2023-02-12T11:49:42;42.45;;;19.70;;
71558;SDS011;59382;43.852;25.952;2023-02-12T11:52:19;41.58;;;17.15;;
71558;SDS011;59382;43.852;25.952;2023-02-12T11:54:47;30.80;;;16.13;;
71558;SDS011;59382;43.852;25.952;2023-02-12T11:57:34;40.63;;;17.90;;
71558;SDS011;59382;43.852;25.952;2023-02-12T12:00:18;33.03;;;16.23;;
71558;SDS011;59382;43.852;25.952;2023-02-12T12:03:00;34.20;;;17.95;;
71558;SDS011;59382;43.852;25.952;2023-02-12T12:05:35;39.35;;;17.98;;
71558;SDS011;59382;43.852;25.952;2023-02-12T12:08:10;44.33;;;19.40;;
71558;SDS011;59382;43.852;25.952;2023-02-12T12:10:49;31.98;;;17.48;;
71558;SDS011;59382;43.852;25.952;2023-02-12T12:13:24;47.35;;;17.80;;
71558;SDS011;59382;43.852;25.952;2023-02-12T12:19:32;35.50;;;16.40;;
71558;SDS011;59382;43.852;25.952;2023-02-12T12:33:16;39.92;;;20.88;;
71558;SDS011;59382;43.852;25.952;2023-02-12T12:42:01;45.45;;;18.85;;
71558;SDS011;59382;43.852;25.952;2023-02-12T12:50:08;30.25;;;14.55;;
71558;SDS011;59382;43.852;25.952;2023-02-12T12:55:40;30.60;;;16.23;;
71558;SDS011;59382;43.852;25.952;2023-02-12T13:06:34;30.55;;;16.23;;
71558;SDS011;59382;43.852;25.952;2023-02-12T13:12:18;33.42;;;16.63;;
71558;SDS011;59382;43.852;25.952;2023-02-12T13:27:52;43.72;;;18.48;;
71558;SDS011;59382;43.852;25.952;2023-02-12T13:30:26;33.60;;;16.30;;
71558;SDS011;59382;43.852;25.952;2023-02-12T13:35:34;78.57;;;31.55;;
71558;SDS011;59382;43.852;25.952;2023-02-12T13:38:05;98.22;;;38.92;;
71558;SDS011;59382;43.852;25.952;2023-02-12T13:40:33;87.45;;;38.15;;
71558;SDS011;59382;43.852;25.952;2023-02-12T13:43:35;56.10;;;33.33;;
71558;SDS011;59382;43.852;25.952;2023-02-12T13:52:35;37.40;;;18.63;;
71558;SDS011;59382;43.852;25.952;2023-02-12T13:57:21;40.40;;;16.42;;
71558;SDS011;59382;43.852;25.952;2023-02-12T13:59:47;41.53;;;18.63;;
71558;SDS011;59382;43.852;25.952;2023-02-12T14:04:46;42.03;;;18.88;;
71558;SDS011;59382;43.852;25.952;2023-02-12T14:07:18;38.45;;;18.15;;
71558;SDS011;59382;43.852;25.952;2023-02-12T14:14:43;39.65;;;19.35;;
71558;SDS011;59382;43.852;25.952;2023-02-12T14:17:55;58.85;;;20.90;;
71558;SDS011;59382;43.852;25.952;2023-02-12T14:35:39;39.78;;;17.83;;
71558;SDS011;59382;43.852;25.952;2023-02-12T14:48:56;37.47;;;18.10;;
71558;SDS011;59382;43.852;25.952;2023-02-12T14:51:44;40.38;;;19.38;;
71558;SDS011;59382;43.852;25.952;2023-02-12T14:54:33;40.65;;;19.85;;
71558;SDS011;59382;43.852;25.952;2023-02-12T14:57:00;45.65;;;22.95;;
71558;SDS011;59382;43.852;25.952;2023-02-12T14:59:31;46.40;;;21.80;;
71558;SDS011;59382;43.852;25.952;2023-02-12T15:02:01;46.58;;;21.55;;
71558;SDS011;59382;43.852;25.952;2023-02-12T15:04:31;46.33;;;21.67;;
71558;SDS011;59382;43.852;25.952;2023-02-12T15:09:39;42.13;;;19.73;;
71558;SDS011;59382;43.852;25.952;2023-02-12T15:12:28;49.90;;;22.13;;
71558;SDS011;59382;43.852;25.952;2023-02-12T15:15:05;59.17;;;23.35;;
71558;SDS011;59382;43.852;25.952;2023-02-12T15:17:39;52.47;;;24.02;;
71558;SDS011;59382;43.852;25.952;2023-02-12T15:20:16;51.80;;;20.65;;
71558;SDS011;59382;43.852;25.952;2023-02-12T15:22:47;88.93;;;49.80;;
71558;SDS011;59382;43.852;25.952;2023-02-12T15:25:15;58.97;;;27.15;;
71558;SDS011;59382;43.852;25.952;2023-02-12T15:28:00;53.72;;;22.40;;
71558;SDS011;59382;43.852;25.952;2023-02-12T15:30:32;45.13;;;20.00;;
71558;SDS011;59382;43.852;25.952;2023-02-12T15:33:01;37.38;;;18.58;;
71558;SDS011;59382;43.852;25.952;2023-02-12T15:35:33;40.20;;;19.48;;
71558;SDS011;59382;43.852;25.952;2023-02-12T15:38:01;41.17;;;20.58;;
71558;SDS011;59382;43.852;25.952;2023-02-12T15:40:31;51.22;;;20.70;;
71558;SDS011;59382;43.852;25.952;2023-02-12T15:43:15;37.97;;;20.27;;
71558;SDS011;59382;43.852;25.952;2023-02-12T15:45:48;35.72;;;18.25;;
71558;SDS011;59382;43.852;25.952;2023-02-12T15:48:18;43.42;;;20.17;;
71558;SDS011;59382;43.852;25.952;2023-02-12T15:50:47;40.05;;;19.50;;
71558;SDS011;59382;43.852;25.952;2023-02-12T15:53:14;34.92;;;19.25;;
71558;SDS011;59382;43.852;25.952;2023-02-12T15:55:44;38.63;;;18.30;;
71558;SDS011;59382;43.852;25.952;2023-02-12T15:58:18;48.15;;;21.30;;
71558;SDS011;59382;43.852;25.952;2023-02-12T16:00:44;32.38;;;17.10;;
71558;SDS011;59382;43.852;25.952;2023-02-12T16:03:54;43.97;;;18.75;;
71558;SDS011;59382;43.852;25.952;2023-02-12T16:06:03;42.55;;;20.60;;
71558;SDS011;59382;43.852;25.952;2023-02-12T16:08:35;41.70;;;20.08;;
71558;SDS011;59382;43.852;25.952;2023-02-12T16:11:02;42.60;;;21.30;;
71558;SDS011;59382;43.852;25.952;2023-02-12T16:13:37;39.43;;;22.47;;
71558;SDS011;59382;43.852;25.952;2023-02-12T16:18:35;46.83;;;23.17;;
71558;SDS011;59382;43.852;25.952;2023-02-12T16:21:11;49.22;;;25.17;;
71558;SDS011;59382;43.852;25.952;2023-02-12T16:23:42;51.63;;;26.42;;
71558;SDS011;59382;43.852;25.952;2023-02-12T16:26:11;52.70;;;28.63;;
71558;SDS011;59382;43.852;25.952;2023-02-12T16:28:44;61.20;;;31.02;;
71558;SDS011;59382;43.852;25.952;2023-02-12T16:31:15;47.38;;;28.13;;
71558;SDS011;59382;43.852;25.952;2023-02-12T16:33:43;56.60;;;27.13;;
71558;SDS011;59382;43.852;25.952;2023-02-12T16:38:50;74.53;;;33.28;;
71558;SDS011;59382;43.852;25.952;2023-02-12T16:41:20;65.82;;;32.35;;
71558;SDS011;59382;43.852;25.952;2023-02-12T16:43:48;69.90;;;30.73;;
71558;SDS011;59382;43.852;25.952;2023-02-12T16:46:15;66.05;;;30.92;;
71558;SDS011;59382;43.852;25.952;2023-02-12T16:48:43;61.10;;;29.80;;
71558;SDS011;59382;43.852;25.952;2023-02-12T16:51:25;61.95;;;29.33;;
71558;SDS011;59382;43.852;25.952;2023-02-12T16:54:00;62.35;;;28.48;;
71558;SDS011;59382;43.852;25.952;2023-02-12T16:56:29;60.28;;;28.77;;
71558;SDS011;59382;43.852;25.952;2023-02-12T16:58:58;56.72;;;27.35;;
71558;SDS011;59382;43.852;25.952;2023-02-12T17:01:26;53.58;;;25.45;;
71558;SDS011;59382;43.852;25.952;2023-02-12T17:03:54;49.30;;;23.58;;
71558;SDS011;59382;43.852;25.952;2023-02-12T17:06:21;49.58;;;24.20;;
71558;SDS011;59382;43.852;25.952;2023-02-12T17:08:51;52.38;;;25.15;;
71558;SDS011;59382;43.852;25.952;2023-02-12T17:11:16;54.80;;;25.75;;
71558;SDS011;59382;43.852;25.952;2023-02-12T17:13:43;52.50;;;25.05;;
71558;SDS011;59382;43.852;25.952;2023-02-12T17:16:11;53.80;;;25.23;;
71558;SDS011;59382;43.852;25.952;2023-02-12T17:18:38;57.70;;;28.33;;
71558;SDS011;59382;43.852;25.952;2023-02-12T17:21:06;73.05;;;30.67;;
71558;SDS011;59382;43.852;25.952;2023-02-12T17:23:38;69.57;;;32.38;;